Terminal Aerodrome Forecast
Issued by NWS North Platte, NE

Home | Current Version | Previous Version | Graphics & Text | Print | Product List | Glossary On
Versions: 1 2 3 4 5 6 7 8 9 10 11 12 13 14 15 16 17 18 19 20
515
FTUS43 KLBF 291120
TAFVTN
TAF
KVTN 291120Z 2912/3012 02006KT P6SM VCSH OVC030
     FM291600 02008KT P6SM OVC060
     FM292200 05011KT P6SM BKN100
     FM300100 06008KT P6SM SCT060
     FM300500 08004KT P6SM SCT150
     FM301000 VRB03KT 3SM BR SCT040=

USA.gov is the U.S. government's official web portal to all federal, state and local government web resources and services.